createdAt,value
2018-12-22T00:00:07.635Z,0
2018-12-22T00:01:09.019Z,0
2018-12-22T00:02:10.402Z,0
2018-12-22T00:03:11.780Z,0
2018-12-22T00:04:13.245Z,0
2018-12-22T00:05:14.657Z,0
2018-12-22T00:06:16.246Z,0
2018-12-22T00:07:17.622Z,0
2018-12-22T00:08:18.999Z,0
2018-12-22T00:09:20.545Z,0
2018-12-22T00:10:21.930Z,0
2018-12-22T00:11:23.348Z,0
2018-12-22T00:12:24.726Z,0
2018-12-22T00:13:26.102Z,0
2018-12-22T00:14:27.645Z,0
2018-12-22T00:15:29.032Z,0
2018-12-22T00:16:30.413Z,0
2018-12-22T00:17:31.798Z,0
2018-12-22T00:18:33.169Z,0
2018-12-22T00:19:34.551Z,0
2018-12-22T00:20:36.073Z,0
2018-12-22T00:21:37.448Z,0
2018-12-22T00:22:38.828Z,0
2018-12-22T00:23:40.346Z,0
2018-12-22T00:24:41.729Z,0
2018-12-22T00:25:43.105Z,0
2018-12-22T00:26:44.680Z,0
2018-12-22T00:27:46.058Z,0
2018-12-22T00:28:47.624Z,0
2018-12-22T00:29:49.000Z,0
2018-12-22T00:30:50.390Z,0
2018-12-22T00:31:51.874Z,0
2018-12-22T00:32:53.361Z,0
2018-12-22T00:33:54.582Z,0
2018-12-22T00:34:56.187Z,0
2018-12-22T00:35:57.566Z,0
2018-12-22T00:36:58.941Z,0
2018-12-22T00:38:00.437Z,0
2018-12-22T00:39:01.810Z,0
2018-12-22T00:40:03.310Z,0
2018-12-22T00:41:04.699Z,0
2018-12-22T00:42:06.077Z,0
2018-12-22T00:43:11.490Z,0
2018-12-22T00:44:12.868Z,0
2018-12-22T00:45:14.250Z,0
2018-12-22T00:46:18.122Z,0
2018-12-22T00:47:19.498Z,0
2018-12-22T00:48:20.885Z,0
2018-12-22T00:49:22.257Z,0
2018-12-22T00:50:23.585Z,0
2018-12-22T00:51:24.962Z,0
2018-12-22T00:52:26.504Z,0
2018-12-22T00:53:27.887Z,0
2018-12-22T00:54:29.252Z,0
2018-12-22T00:55:30.744Z,0
2018-12-22T00:56:32.134Z,0
2018-12-22T00:57:33.526Z,0
2018-12-22T00:58:35.084Z,0
2018-12-22T00:59:36.467Z,0
2018-12-22T01:00:37.847Z,0
2018-12-22T01:01:39.274Z,0
2018-12-22T01:02:40.656Z,0
2018-12-22T01:03:42.029Z,0
2018-12-22T01:04:43.633Z,0
2018-12-22T01:05:45.008Z,0
2018-12-22T01:06:46.479Z,0
2018-12-22T01:07:47.863Z,0
2018-12-22T01:08:49.243Z,0
2018-12-22T01:09:50.625Z,0
2018-12-22T01:10:52.012Z,0
2018-12-22T01:11:53.537Z,0
2018-12-22T01:12:54.916Z,0
2018-12-22T01:13:56.290Z,0
2018-12-22T01:14:57.807Z,0
2018-12-22T01:15:59.191Z,0
2018-12-22T01:17:00.565Z,0
2018-12-22T01:18:02.157Z,0
2018-12-22T01:19:03.536Z,0
2018-12-22T01:20:05.056Z,0
2018-12-22T01:21:06.426Z,0
2018-12-22T01:22:07.829Z,0
2018-12-22T01:23:13.418Z,0
2018-12-22T01:24:14.837Z,0
2018-12-22T01:25:16.335Z,0
2018-12-22T01:26:17.713Z,0
2018-12-22T01:27:19.093Z,0
2018-12-22T01:28:20.478Z,0
2018-12-22T01:29:21.859Z,0
2018-12-22T01:30:23.270Z,0
2018-12-22T01:31:24.658Z,0
2018-12-22T01:32:25.994Z,0
2018-12-22T01:33:27.374Z,0
2018-12-22T01:34:28.758Z,0
2018-12-22T01:35:30.138Z,0
2018-12-22T01:36:31.517Z,0
2018-12-22T01:37:32.915Z,0
2018-12-22T01:38:34.292Z,0
2018-12-22T01:39:35.681Z,0
2018-12-22T01:40:37.073Z,0
2018-12-22T01:41:38.685Z,0
2018-12-22T01:42:40.060Z,0
2018-12-22T01:43:41.435Z,0
2018-12-22T01:44:42.983Z,0
2018-12-22T01:45:44.361Z,0
2018-12-22T01:46:45.745Z,0
2018-12-22T01:47:47.119Z,0
2018-12-22T01:48:48.499Z,0
2018-12-22T01:49:49.867Z,0
2018-12-22T01:50:51.197Z,0
2018-12-22T01:51:52.576Z,0
2018-12-22T01:52:54.121Z,0
2018-12-22T01:53:55.503Z,0
2018-12-22T01:54:56.877Z,0
2018-12-22T01:55:58.581Z,0
2018-12-22T01:56:59.955Z,0
2018-12-22T01:58:01.482Z,0
2018-12-22T01:59:02.831Z,0
2018-12-22T02:00:04.216Z,0
2018-12-22T02:01:05.912Z,0
2018-12-22T02:02:07.296Z,0
2018-12-22T02:03:08.666Z,0
2018-12-22T02:04:10.046Z,0
2018-12-22T02:05:11.544Z,0
2018-12-22T02:06:12.920Z,0
2018-12-22T02:07:14.300Z,0
2018-12-22T02:08:15.781Z,0
2018-12-22T02:09:17.162Z,0
2018-12-22T02:10:18.535Z,0
2018-12-22T02:11:20.041Z,0
2018-12-22T02:12:21.423Z,0
2018-12-22T02:13:22.799Z,0
2018-12-22T02:14:24.313Z,0
2018-12-22T02:15:25.685Z,0
2018-12-22T02:16:27.097Z,0
2018-12-22T02:17:28.491Z,0
2018-12-22T02:18:29.865Z,0
2018-12-22T02:19:31.257Z,0
2018-12-22T02:20:32.639Z,0
2018-12-22T02:21:34.012Z,0
2018-12-22T02:22:35.388Z,0
2018-12-22T02:23:36.968Z,0
2018-12-22T02:24:38.347Z,0
2018-12-22T02:25:39.724Z,0
2018-12-22T02:26:41.196Z,0
2018-12-22T02:27:42.582Z,0
2018-12-22T02:28:43.963Z,0
2018-12-22T02:29:45.343Z,0
2018-12-22T02:30:46.722Z,0
2018-12-22T02:31:48.091Z,0
2018-12-22T02:32:49.466Z,0
2018-12-22T02:33:50.845Z,0
2018-12-22T02:34:52.456Z,0
2018-12-22T02:35:53.837Z,0
2018-12-22T02:36:55.171Z,0
2018-12-22T02:37:56.791Z,0
2018-12-22T02:38:59.476Z,0
2018-12-22T02:40:00.852Z,0
2018-12-22T09:51:15.909Z,120
2018-12-22T09:52:17.281Z,168
2018-12-22T09:53:18.663Z,308
2018-12-22T09:54:20.052Z,380
2018-12-22T09:55:21.425Z,292
2018-12-22T09:56:22.813Z,236
2018-12-22T09:57:24.204Z,196
2018-12-22T09:58:25.575Z,176
2018-12-22T09:59:26.949Z,156
2018-12-22T10:00:28.321Z,144
2018-12-22T10:01:29.701Z,152
2018-12-22T10:02:31.073Z,140
2018-12-22T10:03:32.449Z,144
2018-12-22T10:04:33.827Z,136
2018-12-22T10:05:35.216Z,144
2018-12-22T10:06:36.596Z,152
2018-12-22T10:07:37.994Z,140
2018-12-22T10:08:39.371Z,136
2018-12-22T10:09:40.749Z,180
2018-12-22T10:10:42.126Z,200
2018-12-22T10:11:43.511Z,192
2018-12-22T10:12:44.890Z,184
2018-12-22T10:13:46.269Z,192
2018-12-22T10:14:47.657Z,204
2018-12-22T10:15:49.035Z,216
2018-12-22T10:16:50.429Z,236
2018-12-22T10:17:51.825Z,288
2018-12-22T10:18:53.206Z,328
2018-12-22T10:19:54.595Z,340
2018-12-22T10:20:55.978Z,364
2018-12-22T10:21:57.367Z,352
2018-12-22T10:22:58.743Z,316
2018-12-22T10:24:00.133Z,324
2018-12-22T10:25:01.513Z,292
2018-12-22T10:26:02.905Z,328
2018-12-22T10:27:04.291Z,508
2018-12-22T10:28:05.680Z,552
2018-12-22T10:29:07.059Z,556
2018-12-22T10:30:08.435Z,440
2018-12-22T10:31:17.724Z,448
2018-12-22T10:32:11.164Z,472
2018-12-22T10:33:12.545Z,392
2018-12-22T10:34:13.925Z,348
2018-12-22T10:35:15.300Z,284
2018-12-22T10:36:16.708Z,308
2018-12-22T10:37:18.101Z,316
2018-12-22T10:38:19.516Z,316
2018-12-22T10:39:20.894Z,332
2018-12-22T10:40:22.272Z,328
2018-12-22T10:41:23.663Z,312
2018-12-22T10:42:25.037Z,268
2018-12-22T10:43:26.430Z,332
2018-12-22T10:44:27.825Z,308
2018-12-22T10:45:29.213Z,276
2018-12-22T10:46:30.614Z,400
2018-12-22T10:47:31.993Z,444
2018-12-22T10:48:33.381Z,504
2018-12-22T10:49:34.817Z,548
2018-12-22T10:50:36.204Z,528
2018-12-22T10:51:37.585Z,584
2018-12-22T10:52:38.968Z,612
2018-12-22T10:53:40.360Z,596
2018-12-22T10:54:41.736Z,620
2018-12-22T10:55:43.111Z,576
2018-12-22T10:56:44.496Z,536
2018-12-22T10:57:45.886Z,592
2018-12-22T10:58:47.309Z,512
2018-12-22T10:59:48.702Z,416
2018-12-22T11:00:50.078Z,412
2018-12-22T11:01:51.474Z,512
2018-12-22T11:02:52.932Z,456
2018-12-22T11:03:55.241Z,492
2018-12-22T11:04:56.661Z,496
2018-12-22T11:05:58.084Z,400
2018-12-22T11:06:59.518Z,336
2018-12-22T11:08:00.896Z,268
2018-12-22T11:09:02.313Z,236
2018-12-22T11:10:03.701Z,228
2018-12-22T11:11:05.081Z,208
2018-12-22T11:12:06.472Z,216
2018-12-22T11:13:07.906Z,216
2018-12-22T11:14:09.297Z,212
2018-12-22T11:15:10.673Z,192
2018-12-22T11:16:12.057Z,196
2018-12-22T11:17:13.443Z,196
2018-12-22T11:18:14.820Z,184
2018-12-22T11:19:16.206Z,180
2018-12-22T11:20:17.612Z,176
2018-12-22T11:21:19.000Z,188
2018-12-22T11:22:20.380Z,176
2018-12-22T11:23:21.761Z,176
2018-12-22T11:24:23.143Z,180
2018-12-22T11:25:24.534Z,168
2018-12-22T11:26:25.910Z,168
2018-12-22T11:27:27.311Z,172
2018-12-22T11:28:28.701Z,176
2018-12-22T11:29:30.085Z,176
2018-12-22T11:30:31.481Z,180
2018-12-22T11:31:35.106Z,180
2018-12-22T11:32:34.227Z,180
2018-12-22T11:33:35.605Z,184
2018-12-22T11:34:36.989Z,188
2018-12-22T11:35:38.372Z,168
2018-12-22T11:36:39.754Z,168
2018-12-22T11:37:41.142Z,168
2018-12-22T11:38:42.528Z,196
2018-12-22T11:39:43.906Z,232
2018-12-22T11:40:45.286Z,276
2018-12-22T11:41:46.673Z,308
2018-12-22T11:42:48.066Z,312
2018-12-22T11:43:49.433Z,364
2018-12-22T11:44:50.829Z,368
2018-12-22T11:45:52.202Z,340
2018-12-22T11:46:53.584Z,324
2018-12-22T11:47:54.965Z,316
2018-12-22T11:48:57.878Z,324
2018-12-22T11:50:01.160Z,308
2018-12-22T11:51:03.209Z,288
2018-12-22T11:52:06.179Z,244
2018-12-22T11:53:07.285Z,216
2018-12-22T11:54:08.687Z,204
2018-12-22T11:55:10.109Z,200
2018-12-22T11:56:11.477Z,200
2018-12-22T11:57:12.872Z,184
2018-12-22T11:58:14.245Z,180
2018-12-22T11:59:16.060Z,228
2018-12-22T12:00:17.445Z,188
2018-12-22T12:01:18.826Z,152
2018-12-22T12:02:20.213Z,164
2018-12-22T12:03:21.604Z,188
2018-12-22T12:04:22.980Z,164
2018-12-22T12:05:24.358Z,168
2018-12-22T12:06:25.740Z,164
2018-12-22T12:07:27.125Z,152
2018-12-22T12:08:28.533Z,196
2018-12-22T12:09:29.912Z,216
2018-12-22T12:10:31.296Z,140
2018-12-22T12:11:32.688Z,160
2018-12-22T12:12:34.067Z,164
2018-12-22T12:13:35.448Z,180
2018-12-22T12:14:36.863Z,180
2018-12-22T12:15:38.218Z,248
2018-12-22T12:16:39.593Z,292
2018-12-22T12:17:40.975Z,288
2018-12-22T12:18:42.355Z,264
2018-12-22T12:19:43.729Z,264
2018-12-22T12:20:45.102Z,232
2018-12-22T12:21:46.493Z,236
2018-12-22T12:22:47.868Z,220
2018-12-22T12:23:49.247Z,244
2018-12-22T12:24:50.638Z,256
2018-12-22T12:25:52.013Z,240
2018-12-22T12:26:53.402Z,256
2018-12-22T12:27:54.782Z,228
2018-12-22T12:28:56.156Z,264
2018-12-22T12:29:57.538Z,316
2018-12-22T12:30:58.922Z,328
2018-12-22T12:32:00.264Z,356
2018-12-22T12:33:01.642Z,392
2018-12-22T12:34:03.018Z,452
2018-12-22T12:35:04.402Z,492
2018-12-22T12:36:05.792Z,544
2018-12-22T12:37:07.168Z,564
2018-12-22T12:38:08.562Z,568
2018-12-22T12:39:09.952Z,572
2018-12-22T12:40:11.334Z,580
2018-12-22T12:41:12.717Z,600
2018-12-22T12:42:14.099Z,636
2018-12-22T12:43:15.614Z,712
2018-12-22T12:44:16.824Z,672
2018-12-22T12:45:18.207Z,636
2018-12-22T12:46:19.588Z,676
2018-12-22T12:47:20.985Z,720
2018-12-22T12:48:22.369Z,664
2018-12-22T12:49:23.745Z,620
2018-12-22T12:50:25.123Z,540
2018-12-22T12:51:26.500Z,480
2018-12-22T12:52:27.881Z,520
2018-12-22T12:53:29.261Z,492
2018-12-22T12:54:30.642Z,416
2018-12-22T12:55:32.022Z,356
2018-12-22T12:56:33.396Z,340
2018-12-22T12:57:34.782Z,336
2018-12-22T12:58:36.162Z,316
2018-12-22T12:59:37.547Z,308
2018-12-22T13:00:38.928Z,272
2018-12-22T13:01:40.304Z,248
2018-12-22T13:02:41.686Z,224
2018-12-22T13:03:43.075Z,208
2018-12-22T13:04:44.460Z,192
2018-12-22T13:05:45.838Z,196
2018-12-22T13:06:47.179Z,168
2018-12-22T13:07:48.589Z,152
2018-12-22T13:08:49.961Z,156
2018-12-22T13:09:51.348Z,144
2018-12-22T13:10:52.725Z,136
2018-12-22T13:11:54.114Z,128
2018-12-22T13:12:55.503Z,136
2018-12-22T13:13:56.883Z,140
2018-12-22T13:14:58.259Z,132
2018-12-22T13:15:59.640Z,128
2018-12-22T13:17:01.016Z,128
2018-12-22T13:18:02.396Z,128
2018-12-22T13:19:03.783Z,128
2018-12-22T13:20:05.166Z,136
2018-12-22T13:21:06.544Z,148
2018-12-22T13:22:07.924Z,160
2018-12-22T13:23:09.309Z,156
2018-12-22T13:24:10.698Z,152
2018-12-22T13:25:12.076Z,148
2018-12-22T13:26:13.462Z,140
2018-12-22T13:27:14.844Z,148
2018-12-22T13:28:16.280Z,180
2018-12-22T13:29:17.609Z,196
2018-12-22T13:30:18.993Z,184
2018-12-22T13:31:20.367Z,176
2018-12-22T13:32:21.758Z,184
2018-12-22T13:33:23.335Z,188
2018-12-22T13:34:24.471Z,168
2018-12-22T13:35:25.855Z,160
2018-12-22T13:36:34.284Z,152
2018-12-22T13:37:28.594Z,140
2018-12-22T13:38:29.983Z,136
2018-12-22T13:39:31.371Z,132
2018-12-22T13:40:32.747Z,120
2018-12-22T13:41:34.121Z,108
2018-12-22T13:42:35.510Z,96
2018-12-22T13:43:36.894Z,92
2018-12-22T13:44:38.268Z,88
2018-12-22T13:45:39.649Z,88
2018-12-22T13:46:41.020Z,84
2018-12-22T13:47:42.593Z,76
2018-12-22T13:48:43.867Z,80
2018-12-22T13:49:45.167Z,80
2018-12-22T13:50:46.448Z,80
2018-12-22T13:51:47.758Z,76
2018-12-22T13:52:49.140Z,76
2018-12-22T13:53:50.510Z,72
2018-12-22T13:54:51.885Z,68
2018-12-22T13:55:53.268Z,68
2018-12-22T13:56:54.644Z,68
2018-12-22T13:57:56.030Z,68
2018-12-22T13:58:57.411Z,68
2018-12-22T13:59:58.803Z,64
2018-12-22T14:01:00.184Z,60
2018-12-22T14:02:01.561Z,60
2018-12-22T14:03:02.937Z,52
2018-12-22T14:04:04.321Z,56
2018-12-22T14:05:05.695Z,52
2018-12-22T14:06:07.074Z,48
2018-12-22T14:07:08.451Z,48
2018-12-22T17:05:08.205Z,0
2018-12-22T17:06:09.586Z,0
2018-12-22T17:07:10.980Z,0
2018-12-22T17:56:34.683Z,0
2018-12-22T17:57:36.057Z,0
2018-12-22T17:58:37.429Z,0
2018-12-22T17:59:38.805Z,0
2018-12-22T18:00:40.170Z,0
2018-12-22T18:01:41.574Z,0
2018-12-22T18:02:42.947Z,0
2018-12-22T18:03:44.318Z,0
2018-12-22T18:04:45.831Z,0
2018-12-22T18:05:47.202Z,0
2018-12-22T18:06:48.577Z,0
2018-12-22T18:07:49.947Z,0
2018-12-22T18:08:51.326Z,0
2018-12-22T18:09:52.699Z,0
2018-12-22T18:10:54.083Z,0
2018-12-22T18:11:55.478Z,0
2018-12-22T18:12:56.856Z,0
2018-12-22T18:14:00.786Z,0
2018-12-22T18:15:02.792Z,0
2018-12-22T18:16:11.366Z,0
2018-12-22T18:17:12.691Z,0
2018-12-22T18:18:14.077Z,0
2018-12-22T18:19:15.453Z,0
2018-12-22T18:20:16.835Z,0
2018-12-22T18:21:18.330Z,0
2018-12-22T18:22:19.711Z,0
2018-12-22T18:23:21.088Z,0
2018-12-22T18:24:22.495Z,0
2018-12-22T18:25:23.867Z,0
2018-12-22T18:26:25.294Z,0
2018-12-22T18:27:26.739Z,0
2018-12-22T18:28:28.126Z,0
2018-12-22T18:29:29.486Z,0
2018-12-22T18:30:30.871Z,0
2018-12-22T18:31:32.265Z,0
2018-12-22T18:32:33.637Z,0
2018-12-22T18:33:36.078Z,0
2018-12-22T18:34:36.365Z,0
2018-12-22T18:35:37.751Z,0
2018-12-22T18:36:39.146Z,0
2018-12-22T18:37:40.520Z,0
2018-12-22T18:38:41.910Z,0
2018-12-22T18:39:43.515Z,0
2018-12-22T18:40:44.899Z,0
2018-12-22T18:41:46.279Z,0
2018-12-22T18:42:47.649Z,0
2018-12-22T18:43:49.045Z,0
2018-12-22T18:44:50.649Z,0
2018-12-22T18:45:52.033Z,0
2018-12-22T18:46:53.419Z,0
2018-12-22T18:47:55.045Z,0
2018-12-22T18:48:56.434Z,0
2018-12-22T18:49:57.810Z,0
2018-12-22T18:50:59.335Z,0
2018-12-22T18:52:00.716Z,0
2018-12-22T18:53:02.095Z,0
2018-12-22T18:54:03.674Z,0
2018-12-22T18:55:05.056Z,0
2018-12-22T18:56:06.442Z,0
2018-12-22T18:57:08.074Z,0
2018-12-22T18:58:09.445Z,0
2018-12-22T18:59:10.826Z,0
2018-12-22T19:00:12.157Z,0
2018-12-22T19:01:16.782Z,0
2018-12-22T19:02:18.174Z,0
2018-12-22T19:03:19.547Z,0
2018-12-22T19:04:21.891Z,0
2018-12-22T19:05:23.305Z,0
2018-12-22T19:06:24.681Z,0
2018-12-22T19:07:26.178Z,0
2018-12-22T19:08:27.561Z,0
2018-12-22T19:09:28.959Z,0
2018-12-22T19:10:30.467Z,0
2018-12-22T19:11:31.840Z,0
2018-12-22T19:12:33.232Z,0
2018-12-22T19:13:34.830Z,0
2018-12-22T19:14:36.207Z,0
2018-12-22T19:15:37.580Z,0
2018-12-22T19:16:39.110Z,0
2018-12-22T19:17:40.485Z,0
2018-12-22T19:18:41.872Z,0
2018-12-22T19:19:43.407Z,0
2018-12-22T19:20:44.784Z,0
2018-12-22T19:21:46.161Z,0
2018-12-22T19:22:47.690Z,0
2018-12-22T19:23:49.070Z,0
2018-12-22T19:24:50.445Z,0
2018-12-22T19:25:52.051Z,0
2018-12-22T19:26:53.429Z,0
2018-12-22T19:27:54.807Z,0
2018-12-22T19:28:56.202Z,0
2018-12-22T19:29:57.580Z,0
2018-12-22T19:30:58.951Z,0
2018-12-22T19:32:00.326Z,0
2018-12-22T19:33:01.717Z,0
2018-12-22T19:34:03.104Z,0
2018-12-22T19:35:04.480Z,0
2018-12-22T19:36:05.877Z,0
2018-12-22T19:37:07.271Z,0
2018-12-22T19:38:08.655Z,0
2018-12-22T19:39:10.035Z,0
2018-12-22T19:40:11.426Z,0
2018-12-22T19:41:12.817Z,0
2018-12-22T19:42:14.182Z,0
2018-12-22T19:43:15.572Z,0
2018-12-22T19:44:16.958Z,0
2018-12-22T19:45:18.338Z,0
2018-12-22T19:46:19.725Z,0
2018-12-22T19:47:21.124Z,0
2018-12-22T19:48:22.507Z,0
2018-12-22T19:49:23.879Z,0
2018-12-22T19:50:25.269Z,0
2018-12-22T19:51:27.437Z,0
2018-12-22T19:52:27.992Z,0
2018-12-22T19:53:29.370Z,0
2018-12-22T19:54:30.745Z,0
2018-12-22T19:55:32.116Z,0
2018-12-22T19:56:33.504Z,0
2018-12-22T19:57:34.879Z,0
2018-12-22T19:58:36.262Z,0
2018-12-22T19:59:38.731Z,0
2018-12-22T20:00:38.996Z,0
2018-12-22T20:01:40.375Z,0
2018-12-22T20:02:41.757Z,0
2018-12-22T20:03:43.166Z,0
2018-12-22T20:04:44.559Z,0
2018-12-22T20:05:46.030Z,0
2018-12-22T20:06:47.567Z,0
2018-12-22T20:07:48.959Z,0
2018-12-22T20:08:50.553Z,0
2018-12-22T20:09:51.902Z,0
2018-12-22T20:10:53.283Z,0
2018-12-22T20:11:54.871Z,0
2018-12-22T20:12:56.275Z,0
2018-12-22T20:13:57.653Z,0
2018-12-22T20:14:59.022Z,0
2018-12-22T20:16:08.583Z,0
2018-12-22T20:17:01.743Z,0
2018-12-22T20:18:03.138Z,0
2018-12-22T20:19:04.536Z,0
